createdAt,value
2022-11-07T00:00:53.249Z,1152.3
2022-11-07T00:02:36.886Z,1147.1
2022-11-07T00:04:20.630Z,1144.3
2022-11-07T00:06:04.281Z,1139.7
2022-11-07T00:07:47.980Z,1135.9
2022-11-07T00:09:31.681Z,1129.3
2022-11-07T00:11:15.431Z,1123.8
2022-11-07T00:12:59.085Z,1116.2
2022-11-07T00:14:42.786Z,1107.8
2022-11-07T00:16:26.481Z,1101.5
2022-11-07T00:18:10.175Z,1095.4
2022-11-07T00:19:53.886Z,1089.9
2022-11-07T00:21:37.617Z,1083.9
2022-11-07T00:23:21.291Z,1083.4
2022-11-07T00:25:04.986Z,1084.7
2022-11-07T00:26:48.814Z,1082.6
2022-11-07T00:28:32.391Z,1079.2
2022-11-07T00:30:16.142Z,1072
2022-11-07T00:31:59.807Z,1064.6
2022-11-07T00:33:43.492Z,1058
2022-11-07T00:35:27.197Z,1053.4
2022-11-07T00:37:10.907Z,1052.1
2022-11-07T00:38:54.607Z,1051.4
2022-11-07T00:40:38.308Z,1048.9
2022-11-07T00:42:22.003Z,1046
2022-11-07T00:44:05.703Z,1044.4
2022-11-07T00:45:49.414Z,1039.1
2022-11-07T00:47:33.098Z,1031.9
2022-11-07T00:49:16.843Z,1030.2
2022-11-07T00:51:00.505Z,1024
2022-11-07T00:52:44.221Z,1020.1
2022-11-07T00:54:27.912Z,1019.5
2022-11-07T00:56:11.611Z,1016.8
2022-11-07T00:57:55.308Z,1010.4
2022-11-07T00:59:39.020Z,1004.2
2022-11-07T01:01:22.702Z,999.7
2022-11-07T01:03:06.406Z,994.3
2022-11-07T01:04:50.116Z,991.8
2022-11-07T01:06:33.818Z,989
2022-11-07T01:08:17.515Z,983.2
2022-11-07T01:10:01.238Z,978.1
2022-11-07T01:11:44.911Z,975
2022-11-07T01:13:28.610Z,975.1
2022-11-07T01:15:12.316Z,969.9
2022-11-07T01:16:56.010Z,967.3
2022-11-07T01:18:39.729Z,965.6
2022-11-07T01:20:23.419Z,963.9
2022-11-07T01:22:07.126Z,957.5
2022-11-07T01:23:50.834Z,955
2022-11-07T01:25:34.529Z,951.5
2022-11-07T01:27:18.233Z,947.5
2022-11-07T01:29:01.923Z,940.3
2022-11-07T01:30:45.643Z,932.6
2022-11-07T01:32:29.401Z,931.3
2022-11-07T01:34:13.076Z,932.3
2022-11-07T01:35:56.735Z,928.3
2022-11-07T01:37:40.450Z,923.1
2022-11-07T01:39:24.159Z,918.5
2022-11-07T01:41:07.850Z,915.2
2022-11-07T01:42:51.528Z,914.6
2022-11-07T01:44:35.232Z,911.2
2022-11-07T01:46:18.966Z,913.8
2022-11-07T01:48:02.653Z,912.3
2022-11-07T01:49:46.337Z,910.7
2022-11-07T01:51:30.056Z,908.9
2022-11-07T01:53:13.738Z,905.9
2022-11-07T01:54:57.449Z,903.1
2022-11-07T01:56:41.157Z,898.4
2022-11-07T01:58:24.872Z,893.8
2022-11-07T02:00:08.579Z,894.4
2022-11-07T02:01:52.309Z,893.1
2022-11-07T02:03:35.949Z,890.1
2022-11-07T02:05:19.655Z,887.5
2022-11-07T02:07:03.367Z,886.6
2022-11-07T02:08:47.066Z,881.9
2022-11-07T02:10:30.758Z,879.7
2022-11-07T02:12:14.470Z,874
2022-11-07T02:13:58.195Z,868.8
2022-11-07T02:15:41.875Z,868.6
2022-11-07T02:17:25.633Z,869.3
2022-11-07T02:19:09.273Z,864.5
2022-11-07T02:20:52.991Z,861.9
2022-11-07T02:22:36.689Z,862
2022-11-07T02:24:20.405Z,862.7
2022-11-07T02:26:04.097Z,857.6
2022-11-07T02:27:47.787Z,852.6
2022-11-07T02:29:31.496Z,848.6
2022-11-07T02:31:15.211Z,846.9
2022-11-07T02:32:58.893Z,844.6
2022-11-07T02:34:42.615Z,843.4
2022-11-07T02:36:26.305Z,842.8
2022-11-07T02:38:10.015Z,843.8
2022-11-07T02:39:53.722Z,841.2
2022-11-07T02:41:37.418Z,836
2022-11-07T02:43:21.115Z,834.7
2022-11-07T02:45:04.812Z,830.6
2022-11-07T02:46:48.499Z,827
2022-11-07T02:48:32.205Z,822.9
2022-11-07T02:50:15.952Z,822.9
2022-11-07T02:51:59.631Z,820.9
2022-11-07T02:53:43.322Z,818.1
2022-11-07T02:55:27.066Z,815.2
2022-11-07T02:57:10.739Z,814.3
2022-11-07T02:58:54.421Z,809
2022-11-07T03:00:38.131Z,807
2022-11-07T03:02:21.833Z,804.7
2022-11-07T03:04:05.525Z,802.1
2022-11-07T03:05:49.238Z,803
2022-11-07T03:07:33.050Z,803.5
2022-11-07T03:09:16.630Z,804.8
2022-11-07T03:11:00.342Z,802
2022-11-07T03:12:44.047Z,799.3
2022-11-07T03:14:27.749Z,799.9
2022-11-07T03:16:11.462Z,797.3
2022-11-07T03:17:55.154Z,796.2
2022-11-07T03:19:38.861Z,794.2
2022-11-07T03:21:22.579Z,792.9
2022-11-07T03:23:06.307Z,790.9
2022-11-07T03:24:49.958Z,789.1
2022-11-07T03:26:33.669Z,790.4
2022-11-07T03:28:17.408Z,789.6
2022-11-07T03:30:01.086Z,788
2022-11-07T03:31:44.775Z,785.9
2022-11-07T03:33:28.476Z,782.5
2022-11-07T03:35:12.165Z,779.6
2022-11-07T03:36:55.878Z,780.8
2022-11-07T03:38:39.609Z,777.5
2022-11-07T03:40:23.280Z,771.9
2022-11-07T03:42:06.993Z,769.6
2022-11-07T03:43:50.696Z,770.2
2022-11-07T03:45:34.495Z,766
2022-11-07T03:47:18.104Z,765.9
2022-11-07T03:49:01.803Z,764.8
2022-11-07T03:50:45.541Z,763.4
2022-11-07T03:52:29.214Z,762.6
2022-11-07T03:54:12.906Z,759.9
2022-11-07T03:55:56.616Z,757.5
2022-11-07T03:57:40.330Z,756.6
2022-11-07T03:59:24.029Z,756.8
2022-11-07T04:01:07.776Z,755.7
2022-11-07T04:02:51.439Z,754.1
2022-11-07T04:04:35.134Z,755.9
2022-11-07T04:06:18.842Z,755.1
2022-11-07T04:08:02.537Z,754.9
2022-11-07T04:09:46.244Z,755.3
2022-11-07T04:11:29.940Z,752.3
2022-11-07T04:13:13.654Z,748.1
2022-11-07T04:14:57.351Z,744.1
2022-11-07T04:16:41.055Z,746.7
2022-11-07T04:18:24.814Z,747.9
2022-11-07T04:20:08.468Z,746.8
2022-11-07T04:21:52.176Z,743
2022-11-07T04:23:35.867Z,741.5
2022-11-07T04:25:19.565Z,739.1
2022-11-07T04:27:03.284Z,738.9
2022-11-07T04:28:47.034Z,734.6
2022-11-07T04:30:30.677Z,732.2
2022-11-07T04:32:14.377Z,730.8
2022-11-07T04:33:58.174Z,730.6
2022-11-07T04:35:41.805Z,730.1
2022-11-07T04:37:25.491Z,728.7
2022-11-07T04:39:09.210Z,730.7
2022-11-07T04:40:52.915Z,729
2022-11-07T04:44:20.323Z,728.5
2022-11-07T04:46:04.024Z,725.8
2022-11-07T04:47:47.751Z,726.6
2022-11-07T04:49:31.427Z,723.7
2022-11-07T04:51:15.136Z,718.8
2022-11-07T04:52:58.834Z,714.8
2022-11-07T04:54:42.524Z,713.6
2022-11-07T04:56:26.241Z,712.9
2022-11-07T04:58:09.983Z,713.4
2022-11-07T04:59:53.663Z,712.5
2022-11-07T05:01:37.329Z,711.1
2022-11-07T05:03:21.039Z,711.9
2022-11-07T05:05:04.759Z,712
2022-11-07T05:06:48.453Z,712.3
2022-11-07T05:08:32.163Z,710.7
2022-11-07T05:10:15.927Z,710.5
2022-11-07T05:11:59.580Z,708.5
2022-11-07T05:13:43.262Z,710.1
2022-11-07T05:15:26.958Z,706.2
2022-11-07T05:17:10.659Z,709.3
2022-11-07T05:18:54.370Z,710.8
2022-11-07T05:20:38.072Z,710.5
2022-11-07T05:22:21.779Z,710
2022-11-07T05:24:05.474Z,709.1
2022-11-07T05:25:48.882Z,705.5
2022-11-07T05:27:32.585Z,704.1
2022-11-07T05:29:16.270Z,701.8
2022-11-07T05:30:59.995Z,701.1
2022-11-07T05:32:43.674Z,700.2
2022-11-07T05:34:27.390Z,701.6
2022-11-07T05:36:11.082Z,700.9
2022-11-07T05:37:54.802Z,700.1
2022-11-07T05:39:38.486Z,700.9
2022-11-07T05:41:22.183Z,701.1
2022-11-07T05:43:05.917Z,703.4
2022-11-07T05:44:49.597Z,702.7
2022-11-07T05:46:33.290Z,703
2022-11-07T05:48:16.997Z,702.4
2022-11-07T05:50:00.722Z,701.7
2022-11-07T05:51:44.537Z,701.4
2022-11-07T05:53:28.120Z,700.8
2022-11-07T05:55:11.808Z,699.9
2022-11-07T05:56:55.520Z,701.4
2022-11-07T05:58:39.241Z,699.3
2022-11-07T06:00:22.909Z,700.7
2022-11-07T06:02:06.621Z,697.3
2022-11-07T06:03:50.320Z,697.2
2022-11-07T06:05:34.019Z,697.5
2022-11-07T06:07:17.720Z,696.7
2022-11-07T06:09:01.437Z,695
2022-11-07T06:10:45.145Z,691.7
2022-11-07T06:12:28.827Z,690.3
2022-11-07T06:14:12.573Z,689.2
2022-11-07T06:15:56.314Z,688.9
2022-11-07T06:17:39.947Z,688
2022-11-07T06:19:23.637Z,687.1
2022-11-07T06:21:07.338Z,687.5
2022-11-07T06:22:51.046Z,686.4
2022-11-07T06:24:34.758Z,685.4
2022-11-07T06:26:18.438Z,682.1
2022-11-07T06:28:02.192Z,678.5
2022-11-07T06:29:45.901Z,679.1
2022-11-07T06:31:29.659Z,678.7
2022-11-07T06:33:13.236Z,680.4
2022-11-07T06:34:56.945Z,679.5
2022-11-07T06:36:40.656Z,678.6
2022-11-07T06:38:24.347Z,678.6
2022-11-07T06:40:08.044Z,677.2
2022-11-07T06:41:51.751Z,676.5
2022-11-07T06:43:35.453Z,675
2022-11-07T06:45:19.225Z,675.4
2022-11-07T06:47:02.845Z,676.9
2022-11-07T06:48:46.557Z,673.4
2022-11-07T06:50:30.268Z,671.4
2022-11-07T06:52:13.969Z,666.4
2022-11-07T06:53:57.663Z,662.9
2022-11-07T06:55:41.356Z,664.8
2022-11-07T06:57:25.078Z,664.9
2022-11-07T06:59:08.768Z,663.7
2022-11-07T07:00:52.459Z,664.4
2022-11-07T07:02:36.162Z,666.6
2022-11-07T07:04:19.943Z,664.1
2022-11-07T07:06:03.631Z,664.7
2022-11-07T07:07:47.342Z,663.5
2022-11-07T07:09:30.977Z,665.1
2022-11-07T07:11:14.734Z,663.9
2022-11-07T07:12:58.420Z,661.3
2022-11-07T07:14:42.083Z,661.7
2022-11-07T07:16:25.798Z,662.1
2022-11-07T07:18:09.480Z,663.6
2022-11-07T07:19:53.256Z,666
2022-11-07T07:21:36.892Z,669.6
2022-11-07T07:23:20.595Z,670.2
2022-11-07T07:25:04.355Z,671.4
2022-11-07T07:26:48.018Z,672.6
2022-11-07T07:28:31.703Z,676.1
2022-11-07T07:30:15.426Z,678.7
2022-11-07T07:31:59.114Z,679.8
2022-11-07T07:33:42.815Z,681.1
2022-11-07T07:35:26.517Z,678.6
2022-11-07T07:37:10.220Z,679.6
2022-11-07T07:38:53.988Z,678.2
2022-11-07T07:40:37.618Z,674.3
2022-11-07T07:42:21.328Z,674.6
2022-11-07T07:44:05.024Z,674.4
2022-11-07T07:45:48.978Z,674.3
2022-11-07T07:47:32.420Z,674.7
2022-11-07T07:49:16.115Z,674.5
2022-11-07T07:50:59.819Z,675
2022-11-07T07:52:43.528Z,677.6
2022-11-07T07:54:27.239Z,678.1
2022-11-07T07:56:10.926Z,681
2022-11-07T07:57:54.635Z,683.1
2022-11-07T07:59:38.337Z,686.6
2022-11-07T08:01:22.098Z,686.7
2022-11-07T08:03:05.724Z,685.6
2022-11-07T08:04:49.510Z,685
2022-11-07T08:06:33.141Z,684.4
2022-11-07T08:08:16.966Z,685.2
2022-11-07T08:10:00.582Z,685.9
2022-11-07T08:11:44.281Z,686.4
2022-11-07T08:13:27.974Z,687.1
2022-11-07T08:15:11.681Z,687.8
2022-11-07T08:16:55.406Z,686.4
2022-11-07T08:18:39.125Z,689
2022-11-07T08:20:22.820Z,695.5
2022-11-07T08:22:06.501Z,706.6
2022-11-07T08:23:50.136Z,714.5
2022-11-07T08:25:33.844Z,717.3
2022-11-07T08:27:17.552Z,720.4
2022-11-07T08:29:01.261Z,746.7
2022-11-07T08:30:44.942Z,758.2
2022-11-07T08:32:28.638Z,753.3
2022-11-07T08:34:12.352Z,747.8
2022-11-07T08:35:56.159Z,742.1
2022-11-07T08:37:39.746Z,740.1
2022-11-07T08:39:23.455Z,736
2022-11-07T08:41:07.147Z,737
2022-11-07T08:42:50.931Z,736
2022-11-07T08:44:34.558Z,734.3
2022-11-07T08:46:18.250Z,739.5
2022-11-07T08:48:01.970Z,754.1
2022-11-07T08:49:45.654Z,764.9
2022-11-07T08:51:29.369Z,769.6
2022-11-07T08:53:13.097Z,770.4
2022-11-07T08:54:56.830Z,769.3
2022-11-07T08:56:40.574Z,763.7
2022-11-07T08:58:24.154Z,758.6
2022-11-07T09:00:07.882Z,754.5
2022-11-07T09:01:51.566Z,753.2
2022-11-07T09:03:35.340Z,751.5
2022-11-07T09:05:19.069Z,747.8
2022-11-07T09:07:02.752Z,743.6
2022-11-07T09:08:46.441Z,742.5
2022-11-07T09:10:30.087Z,742.9
2022-11-07T09:12:13.784Z,744.3
2022-11-07T09:13:57.498Z,745
2022-11-07T09:15:41.283Z,746
2022-11-07T09:17:24.897Z,745.7
2022-11-07T09:19:08.598Z,743
2022-11-07T09:20:52.340Z,742.2
2022-11-07T09:22:36.030Z,740.2
2022-11-07T09:24:19.722Z,739.8
2022-11-07T09:26:03.491Z,740.9
2022-11-07T09:27:47.128Z,739.5
2022-11-07T09:29:30.895Z,741.7
2022-11-07T09:31:14.602Z,742.7
2022-11-07T09:32:58.230Z,741.1
2022-11-07T09:34:41.928Z,742.5
2022-11-07T09:36:25.763Z,743.8
2022-11-07T09:38:09.345Z,744.3
2022-11-07T09:39:53.038Z,741.5
2022-11-07T09:41:36.960Z,740.6
2022-11-07T09:43:20.512Z,739.1
2022-11-07T09:45:04.143Z,735.8
2022-11-07T09:46:47.847Z,736.1
2022-11-07T09:48:31.586Z,733.7
2022-11-07T09:50:15.263Z,736.2
2022-11-07T09:51:58.959Z,736.9
2022-11-07T09:53:42.783Z,736
2022-11-07T09:55:26.421Z,734.3
2022-11-07T09:57:10.072Z,734.5
2022-11-07T09:58:53.812Z,735.3
2022-11-07T10:00:37.497Z,734.5
2022-11-07T10:02:21.263Z,730.8
2022-11-07T10:04:04.887Z,729.3
2022-11-07T10:05:48.735Z,726.2
2022-11-07T10:07:32.296Z,723.1
2022-11-07T10:09:16.016Z,722.6
2022-11-07T10:10:59.729Z,722.6
2022-11-07T10:12:43.381Z,721.5
2022-11-07T10:14:27.073Z,720.4
2022-11-07T10:16:10.778Z,717.7
2022-11-07T10:17:54.497Z,719.7
2022-11-07T10:19:38.270Z,719.9
2022-11-07T10:21:21.946Z,719.1
2022-11-07T10:23:05.620Z,714.2
2022-11-07T10:24:49.312Z,712.6
2022-11-07T10:26:32.987Z,710
2022-11-07T10:28:16.743Z,709.6
2022-11-07T10:30:00.380Z,709.8
2022-11-07T10:31:44.091Z,709
2022-11-07T10:33:27.803Z,711.7
2022-11-07T10:35:11.502Z,715.1
2022-11-07T10:36:55.203Z,714.3
2022-11-07T10:38:38.917Z,715.7
2022-11-07T10:40:22.596Z,713.8
2022-11-07T10:42:06.316Z,711.5
2022-11-07T10:43:49.998Z,712
2022-11-07T10:45:33.737Z,713.1
2022-11-07T10:47:17.539Z,712.5
2022-11-07T10:49:01.209Z,711.7
2022-11-07T10:50:44.803Z,715.1
2022-11-07T10:52:28.563Z,718.9
2022-11-07T10:54:12.214Z,719.3
2022-11-07T10:55:55.940Z,720.7
2022-11-07T10:57:39.660Z,726.3
2022-11-07T10:59:23.330Z,729.1
2022-11-07T11:01:07.023Z,731.8
2022-11-07T11:02:50.730Z,736.3
2022-11-07T11:04:34.420Z,744.8
2022-11-07T11:06:18.144Z,747.8
2022-11-07T11:08:01.834Z,761.7
2022-11-07T11:09:45.548Z,770.4
2022-11-07T11:11:29.371Z,771.5
2022-11-07T11:13:12.941Z,774.1
2022-11-07T11:14:56.631Z,774.6
2022-11-07T11:16:40.355Z,777.2
2022-11-07T11:18:24.116Z,780.8
2022-11-07T11:20:07.817Z,776
2022-11-07T11:21:51.451Z,774.4
2022-11-07T11:23:35.160Z,785.4
2022-11-07T11:25:18.858Z,796.4
2022-11-07T11:27:02.601Z,806.3
2022-11-07T11:28:46.287Z,807.8
2022-11-07T11:30:29.967Z,809.8
2022-11-07T11:33:57.383Z,811.4
2022-11-07T11:35:41.076Z,807.5
2022-11-07T11:37:24.793Z,808.6
2022-11-07T11:39:08.490Z,808.7
2022-11-07T11:40:52.174Z,804.6
2022-11-07T11:42:35.942Z,809.7
2022-11-07T11:44:19.601Z,815
2022-11-07T11:46:03.302Z,816.1
2022-11-07T11:47:47.013Z,817
2022-11-07T11:49:30.774Z,814.3
2022-11-07T11:51:14.405Z,811.7
2022-11-07T11:52:58.121Z,806
2022-11-07T11:54:41.850Z,804.3
2022-11-07T11:56:25.577Z,802.6
2022-11-07T11:58:09.217Z,800.2
2022-11-07T11:59:52.940Z,803.9
2022-11-07T12:01:36.631Z,805
2022-11-07T12:03:20.462Z,810.3
2022-11-07T12:05:04.036Z,816.2
2022-11-07T12:06:47.734Z,821.3
2022-11-07T12:08:31.482Z,824.3
2022-11-07T12:10:15.147Z,827.9
2022-11-07T12:11:58.837Z,832.1
2022-11-07T12:13:42.541Z,843.9
2022-11-07T12:15:26.263Z,846.2
2022-11-07T12:17:09.950Z,852
2022-11-07T12:18:53.634Z,861.2
2022-11-07T12:20:37.340Z,865.1
2022-11-07T12:22:21.050Z,868
2022-11-07T12:24:04.744Z,868.1
2022-11-07T12:25:48.442Z,871.6
2022-11-07T12:27:32.164Z,883.9
2022-11-07T12:29:15.856Z,902.3
2022-11-07T12:30:59.539Z,910.4
2022-11-07T12:32:43.249Z,906.3
2022-11-07T12:34:26.948Z,902.2
2022-11-07T12:36:10.661Z,905.5
2022-11-07T12:37:54.353Z,913.3
2022-11-07T12:39:38.073Z,915.5
2022-11-07T12:41:21.777Z,932.9
2022-11-07T12:43:05.470Z,960.4
2022-11-07T12:44:49.171Z,975
2022-11-07T12:46:32.906Z,984.1
2022-11-07T12:48:16.582Z,989.1
2022-11-07T12:50:00.330Z,987.5
2022-11-07T12:51:43.988Z,992
2022-11-07T12:53:27.681Z,993.8
2022-11-07T12:55:11.388Z,993.7
2022-11-07T12:56:55.086Z,988.8
2022-11-07T12:58:38.771Z,985
2022-11-07T13:00:22.511Z,979.9
2022-11-07T13:02:06.234Z,979.9
2022-11-07T13:03:49.876Z,975.5
2022-11-07T13:05:33.580Z,969.9
2022-11-07T13:07:17.305Z,967.9
2022-11-07T13:09:00.989Z,967.1
2022-11-07T13:10:44.713Z,968.9
2022-11-07T13:12:28.383Z,1002.5
2022-11-07T13:14:12.115Z,1060.3
2022-11-07T13:15:55.801Z,1073
2022-11-07T13:17:39.507Z,1072.1
2022-11-07T13:19:23.205Z,1079.5
2022-11-07T13:21:06.891Z,1085.7
2022-11-07T13:22:50.651Z,1093.5
2022-11-07T13:24:34.339Z,1097.7
2022-11-07T13:26:18.015Z,1110
2022-11-07T13:28:01.733Z,1120.8
2022-11-07T13:29:45.428Z,1128.4
2022-11-07T13:31:29.115Z,1128.3
2022-11-07T13:33:12.820Z,1137.8
2022-11-07T13:34:56.535Z,1143.6
2022-11-07T13:36:40.235Z,1146.6
2022-11-07T13:38:23.929Z,1151.2
2022-11-07T13:40:07.630Z,1158.7
2022-11-07T13:41:51.346Z,1167.4
2022-11-07T13:43:35.036Z,1173.1
2022-11-07T13:45:18.739Z,1174.2
2022-11-07T13:47:02.451Z,1184.9
2022-11-07T13:48:46.157Z,1189.5
2022-11-07T13:50:29.853Z,1188.2
2022-11-07T13:52:13.560Z,1188.5
2022-11-07T13:53:57.252Z,1192.9
2022-11-07T13:55:41.031Z,1194.5
2022-11-07T13:57:24.690Z,1192.2
2022-11-07T13:59:08.460Z,1194.8
2022-11-07T14:00:52.105Z,1194.2
2022-11-07T14:02:35.783Z,1195.5
2022-11-07T14:04:19.469Z,1194.5
2022-11-07T14:06:03.170Z,1194.3
2022-11-07T14:07:46.897Z,1194.3
2022-11-07T14:09:30.581Z,1192.2
2022-11-07T14:11:14.263Z,1183.4
2022-11-07T14:12:57.972Z,1172.7
2022-11-07T14:14:41.669Z,1153.2
2022-11-07T14:16:25.421Z,1112
2022-11-07T14:18:09.095Z,1087.6
2022-11-07T14:19:52.787Z,1083.5
2022-11-07T14:21:36.478Z,1075.6
2022-11-07T14:23:20.171Z,1073.9
2022-11-07T14:25:03.878Z,1075.1
2022-11-07T14:26:47.578Z,1073.4
2022-11-07T14:28:31.276Z,1071.8
2022-11-07T14:30:14.978Z,1070.8
2022-11-07T14:31:58.675Z,1074.7
2022-11-07T14:33:42.461Z,1076.6
2022-11-07T14:35:26.080Z,1076.9
2022-11-07T14:37:09.968Z,1076.7
2022-11-07T14:38:53.479Z,1075
2022-11-07T14:40:37.181Z,1074.7
2022-11-07T14:42:20.904Z,1075.8
2022-11-07T14:44:04.671Z,1077.4
2022-11-07T14:45:48.283Z,1078.5
2022-11-07T14:47:31.984Z,1078.6
2022-11-07T14:49:15.700Z,1080.6
2022-11-07T14:50:59.403Z,1084.7
2022-11-07T14:52:43.090Z,1083.6
2022-11-07T14:54:26.840Z,1083.1
2022-11-07T14:56:10.554Z,1067.8
2022-11-07T14:57:54.234Z,1010.5
2022-11-07T14:59:37.920Z,979.6
2022-11-07T15:01:21.601Z,990.2
2022-11-07T15:03:05.303Z,1104.7
2022-11-07T15:04:49.061Z,1110.6
2022-11-07T15:06:32.699Z,1114
2022-11-07T15:08:16.393Z,1113.8
2022-11-07T15:10:00.126Z,1114.8
2022-11-07T15:11:43.803Z,1105.9
2022-11-07T15:13:27.513Z,1093.8
2022-11-07T15:15:11.219Z,1097.2
2022-11-07T15:16:54.908Z,1104.8
2022-11-07T15:18:38.631Z,1113.4
2022-11-07T15:20:22.345Z,1117.2
2022-11-07T15:22:06.013Z,1127.7
2022-11-07T15:23:49.752Z,1148.1
2022-11-07T15:25:33.429Z,1164.1
2022-11-07T15:27:17.129Z,1164.6
2022-11-07T15:29:00.833Z,1164.8
2022-11-07T15:30:44.546Z,1173.8
2022-11-07T15:32:28.242Z,1182.5
2022-11-07T15:34:11.934Z,1175.7
2022-11-07T15:35:55.639Z,1174.9
2022-11-07T15:37:39.411Z,1178.1
2022-11-07T15:39:23.079Z,1178.7
2022-11-07T15:41:06.939Z,1179.2
2022-11-07T15:42:50.448Z,1145
2022-11-07T15:44:34.293Z,1080.7
2022-11-07T15:46:17.870Z,1069.1
2022-11-07T15:48:01.739Z,1062.5
2022-11-07T15:49:45.273Z,1066.1
2022-11-07T15:51:29.087Z,1060.8
2022-11-07T15:53:12.656Z,1055.7
2022-11-07T15:54:56.443Z,1051.8
2022-11-07T15:56:40.077Z,1048.7
2022-11-07T15:58:23.770Z,1049.2
2022-11-07T16:00:07.475Z,1046.8
2022-11-07T16:01:51.177Z,1048
2022-11-07T16:03:34.870Z,1048.8
2022-11-07T16:05:18.586Z,1047.9
2022-11-07T16:07:02.270Z,1045.3
2022-11-07T16:08:45.992Z,1045.8
2022-11-07T16:10:29.715Z,1043.7
2022-11-07T16:12:13.380Z,1038.7
2022-11-07T16:13:57.075Z,1035.2
2022-11-07T16:15:40.886Z,1031.3
2022-11-07T16:17:24.531Z,1029.7
2022-11-07T16:19:08.199Z,1027.2
2022-11-07T16:20:51.977Z,1029.7
2022-11-07T16:22:35.586Z,1034.1
2022-11-07T16:24:19.294Z,1033.6
2022-11-07T16:26:03.006Z,1036.8
2022-11-07T16:27:46.710Z,1036.8
2022-11-07T16:29:30.463Z,1034.5
2022-11-07T16:31:14.113Z,1030.3
2022-11-07T16:32:57.899Z,1032
2022-11-07T16:34:41.524Z,1031.8
2022-11-07T16:36:25.280Z,1029.5
2022-11-07T16:38:08.932Z,1025.6
2022-11-07T16:39:52.601Z,1025.3
2022-11-07T16:41:36.367Z,1023.5
2022-11-07T16:43:20.032Z,1022.5
2022-11-07T16:45:03.736Z,1021.9
2022-11-07T16:46:47.426Z,1025
2022-11-07T16:48:31.125Z,1029
2022-11-07T16:50:14.824Z,1032.2
2022-11-07T16:51:58.526Z,1033
2022-11-07T16:53:42.237Z,1031.3
2022-11-07T16:55:25.980Z,1030.7
2022-11-07T16:57:09.618Z,1035.1
2022-11-07T16:58:53.331Z,1042.6
2022-11-07T17:00:37.093Z,1043.6
2022-11-07T17:02:20.742Z,1042.3
2022-11-07T17:04:04.500Z,1044.1
2022-11-07T17:05:48.160Z,1045.8
2022-11-07T17:07:31.832Z,1046.2
2022-11-07T17:09:15.536Z,1044.5
2022-11-07T17:10:59.323Z,1043.5
2022-11-07T17:12:42.998Z,1045.4
2022-11-07T17:14:26.648Z,1049.2
2022-11-07T17:16:10.354Z,1054.7
2022-11-07T17:17:54.072Z,1059.2
2022-11-07T17:19:37.751Z,1062
2022-11-07T17:21:21.430Z,1062.8
2022-11-07T17:23:05.158Z,1063.1
2022-11-07T17:24:48.854Z,1066
2022-11-07T17:26:32.566Z,1064.1
2022-11-07T17:28:16.326Z,1067.4
2022-11-07T17:29:59.970Z,1067.1
2022-11-07T17:31:43.655Z,1066.9
2022-11-07T17:33:27.425Z,1070
2022-11-07T17:35:11.083Z,1071
2022-11-07T17:36:54.789Z,1071.3
2022-11-07T17:38:38.484Z,1067.8
2022-11-07T17:40:22.184Z,1069.6
2022-11-07T17:42:05.881Z,1073.2
2022-11-07T17:43:49.599Z,1073.6
2022-11-07T17:45:33.300Z,1070.1
2022-11-07T17:47:17.011Z,1065.7
2022-11-07T17:49:00.698Z,1065.2
2022-11-07T17:50:44.406Z,1068.1
2022-11-07T17:52:28.105Z,1070.6
2022-11-07T17:54:11.875Z,1069.8
2022-11-07T17:55:55.510Z,1070.5
2022-11-07T17:57:39.207Z,1069.6
2022-11-07T17:59:22.927Z,1067.9
2022-11-07T18:01:06.627Z,1067
2022-11-07T18:02:50.331Z,1067.8
2022-11-07T18:04:34.089Z,1066
2022-11-07T18:06:17.729Z,1063.9
2022-11-07T18:08:01.449Z,1064.6
2022-11-07T18:09:45.210Z,1067.2
2022-11-07T18:11:28.849Z,1068.6
2022-11-07T18:13:12.584Z,1073.2
2022-11-07T18:14:56.266Z,1072.7
2022-11-07T18:16:39.967Z,1076.6
2022-11-07T18:18:23.664Z,1083.2
2022-11-07T18:20:07.351Z,1086.8
2022-11-07T18:21:51.063Z,1089.3
2022-11-07T18:23:34.761Z,1087.6
2022-11-07T18:25:18.472Z,1087.5
2022-11-07T18:27:02.168Z,1091.1
2022-11-07T18:28:45.879Z,1095.6
2022-11-07T18:30:29.583Z,1096.9
2022-11-07T18:32:13.309Z,1100.7
2022-11-07T18:33:57.002Z,1103.2
2022-11-07T18:35:40.683Z,1103.5
2022-11-07T18:37:24.383Z,1101.8
2022-11-07T18:39:08.090Z,1098.8
2022-11-07T18:40:51.800Z,1096.2
2022-11-07T18:42:35.620Z,1097.5
2022-11-07T18:44:19.213Z,1097.9
2022-11-07T18:46:02.934Z,1098.2
2022-11-07T18:47:46.586Z,1097.6
2022-11-07T18:49:30.307Z,1097.2
2022-11-07T18:51:13.986Z,1102.2
2022-11-07T18:52:57.715Z,1098.9
2022-11-07T18:54:41.391Z,1102.7
2022-11-07T18:56:25.118Z,1140.9
2022-11-07T18:58:08.789Z,1222.5
2022-11-07T18:59:52.501Z,1222.9
2022-11-07T19:01:36.201Z,1215.6
2022-11-07T19:03:20.002Z,1216.8
2022-11-07T19:05:03.745Z,1218.8
2022-11-07T19:06:47.299Z,1220.6
2022-11-07T19:08:31.012Z,1234.2
2022-11-07T19:10:14.734Z,1229.6
2022-11-07T19:11:58.482Z,1222.7
2022-11-07T19:13:42.119Z,1220.3
2022-11-07T19:15:25.840Z,1218.7
2022-11-07T19:17:09.568Z,1219
2022-11-07T19:18:53.206Z,1222.4
2022-11-07T19:20:36.954Z,1226.8
2022-11-07T19:22:20.714Z,1224.9
2022-11-07T19:24:04.338Z,1223.5
2022-11-07T19:25:48.046Z,1220.5
2022-11-07T19:27:31.736Z,1216.2
2022-11-07T19:29:15.442Z,1212.7
2022-11-07T19:30:59.145Z,1213.3
2022-11-07T19:32:42.847Z,1214.9
2022-11-07T19:34:26.569Z,1206.8
2022-11-07T19:36:10.265Z,1202.1
2022-11-07T19:37:54.012Z,1201.5
2022-11-07T19:39:37.662Z,1199
2022-11-07T19:41:21.357Z,1194.2
2022-11-07T19:43:05.110Z,1191.3
2022-11-07T19:44:48.816Z,1188.7
2022-11-07T19:46:32.466Z,1187.2
2022-11-07T19:48:16.169Z,1184.6
2022-11-07T19:49:59.876Z,1183.9
2022-11-07T19:51:43.585Z,1188.5
2022-11-07T19:53:27.270Z,1189.8
2022-11-07T19:55:10.959Z,1188.9
2022-11-07T19:56:54.686Z,1187.4
2022-11-07T19:58:38.377Z,1187.2
2022-11-07T20:00:22.079Z,1188.1
2022-11-07T20:02:05.823Z,1191.5
2022-11-07T20:03:49.487Z,1189.4
2022-11-07T20:05:33.184Z,1186.4
2022-11-07T20:07:16.898Z,1189.4
2022-11-07T20:09:00.592Z,1190.7
2022-11-07T20:10:44.283Z,1191.8
2022-11-07T20:12:27.989Z,1191
2022-11-07T20:14:11.696Z,1189.6
2022-11-07T20:15:55.388Z,1192.7
2022-11-07T20:17:39.121Z,1195
2022-11-07T20:19:22.798Z,1198.2
2022-11-07T20:21:06.528Z,1199.2
2022-11-07T20:22:50.203Z,1199.2
2022-11-07T20:24:33.907Z,1200.6
2022-11-07T20:26:17.620Z,1197.6
2022-11-07T20:28:01.315Z,1197.7
2022-11-07T20:29:45.004Z,1194.2
2022-11-07T20:31:28.721Z,1192.6
2022-11-07T20:33:12.426Z,1191.3
2022-11-07T20:34:56.121Z,1189.4
2022-11-07T20:36:39.899Z,1188.4
2022-11-07T20:38:23.536Z,1191.2
2022-11-07T20:40:07.239Z,1190
2022-11-07T20:41:50.940Z,1189
2022-11-07T20:43:34.735Z,1189
2022-11-07T20:45:18.595Z,1192.1
2022-11-07T20:47:02.278Z,1197.9
2022-11-07T20:48:45.917Z,1197.9
2022-11-07T20:50:29.651Z,1198.5
2022-11-07T20:52:13.353Z,1194.7
2022-11-07T20:53:57.028Z,1191.2
2022-11-07T20:55:40.542Z,1191.3
2022-11-07T20:57:24.490Z,1189.2
2022-11-07T20:59:07.976Z,1191.9
2022-11-07T21:00:51.822Z,1195.8
2022-11-07T21:02:35.374Z,1195.6
2022-11-07T21:04:19.282Z,1197.8
2022-11-07T21:06:02.791Z,1201
2022-11-07T21:07:46.602Z,1209
2022-11-07T21:09:30.391Z,1212.4
2022-11-07T21:11:13.875Z,1218.3
2022-11-07T21:12:57.624Z,1220.2
2022-11-07T21:14:41.304Z,1222
2022-11-07T21:16:25.009Z,1223.6
2022-11-07T21:18:08.711Z,1227.3
2022-11-07T21:19:52.404Z,1236.1
2022-11-07T21:21:36.119Z,1248.7
2022-11-07T21:23:19.813Z,1255.7
2022-11-07T21:25:03.526Z,1258.1
2022-11-07T21:26:47.228Z,1258.8
2022-11-07T21:28:30.931Z,1255.6
2022-11-07T21:30:14.632Z,1260.1
2022-11-07T21:31:58.342Z,1259
2022-11-07T21:33:42.060Z,1260.6
2022-11-07T21:35:25.752Z,1261.2
2022-11-07T21:37:09.439Z,1262.8
2022-11-07T21:38:53.149Z,1267.7
2022-11-07T21:40:36.842Z,1265.4
2022-11-07T21:42:20.556Z,1261.2
2022-11-07T21:44:04.252Z,1263.6
2022-11-07T21:45:47.940Z,1261.4
2022-11-07T21:47:31.658Z,1263.3
2022-11-07T21:49:15.368Z,1264.3
2022-11-07T21:50:59.066Z,1264.5
2022-11-07T21:52:42.770Z,1260
2022-11-07T21:54:26.459Z,1252.6
2022-11-07T21:56:10.166Z,1250.8
2022-11-07T21:57:53.860Z,1248
2022-11-07T21:59:37.566Z,1247.3
2022-11-07T22:01:21.271Z,1245
2022-11-07T22:03:05.033Z,1244.6
2022-11-07T22:04:48.665Z,1238.9
2022-11-07T22:06:32.361Z,1233.7
2022-11-07T22:08:16.076Z,1230.8